sensor_id;sensor_type;location;lat;lon;timestamp;P1;durP1;ratioP1;P2;durP2;ratioP2
18076;SDS011;9165;45.714;11.362;2022-09-17T00:01:54;1.83;;;0.70;;
18076;SDS011;9165;45.714;11.362;2022-09-17T00:04:20;1.17;;;0.73;;
18076;SDS011;9165;45.714;11.362;2022-09-17T00:06:48;1.27;;;1.17;;
18076;SDS011;9165;45.714;11.362;2022-09-17T00:09:15;2.33;;;1.50;;
18076;SDS011;9165;45.714;11.362;2022-09-17T00:11:42;2.67;;;1.23;;
18076;SDS011;9165;45.714;11.362;2022-09-17T00:14:11;2.90;;;1.87;;
18076;SDS011;9165;45.714;11.362;2022-09-17T00:16:39;1.47;;;1.30;;
18076;SDS011;9165;45.714;11.362;2022-09-17T00:19:07;1.53;;;1.10;;
18076;SDS011;9165;45.714;11.362;2022-09-17T00:21:35;1.00;;;0.90;;
18076;SDS011;9165;45.714;11.362;2022-09-17T00:24:04;1.53;;;1.17;;
18076;SDS011;9165;45.714;11.362;2022-09-17T00:26:31;1.83;;;0.97;;
18076;SDS011;9165;45.714;11.362;2022-09-17T00:28:58;2.70;;;2.00;;
18076;SDS011;9165;45.714;11.362;2022-09-17T00:31:26;1.93;;;1.77;;
18076;SDS011;9165;45.714;11.362;2022-09-17T00:33:53;1.20;;;1.00;;
18076;SDS011;9165;45.714;11.362;2022-09-17T00:36:19;1.20;;;1.10;;
18076;SDS011;9165;45.714;11.362;2022-09-17T00:38:47;1.03;;;0.83;;
18076;SDS011;9165;45.714;11.362;2022-09-17T00:41:15;1.67;;;0.97;;
18076;SDS011;9165;45.714;11.362;2022-09-17T00:43:42;1.33;;;0.60;;
18076;SDS011;9165;45.714;11.362;2022-09-17T00:46:11;1.33;;;1.00;;
18076;SDS011;9165;45.714;11.362;2022-09-17T00:48:41;1.87;;;1.37;;
18076;SDS011;9165;45.714;11.362;2022-09-17T00:51:09;3.27;;;1.50;;
18076;SDS011;9165;45.714;11.362;2022-09-17T00:53:36;2.03;;;0.50;;
18076;SDS011;9165;45.714;11.362;2022-09-17T00:56:06;2.17;;;0.80;;
18076;SDS011;9165;45.714;11.362;2022-09-17T00:58:35;4.90;;;2.07;;
18076;SDS011;9165;45.714;11.362;2022-09-17T01:01:02;1.73;;;1.43;;
18076;SDS011;9165;45.714;11.362;2022-09-17T01:03:29;2.67;;;1.03;;
18076;SDS011;9165;45.714;11.362;2022-09-17T01:05:58;1.90;;;0.93;;
18076;SDS011;9165;45.714;11.362;2022-09-17T01:08:31;1.00;;;0.80;;
18076;SDS011;9165;45.714;11.362;2022-09-17T01:11:13;3.30;;;1.17;;
18076;SDS011;9165;45.714;11.362;2022-09-17T01:13:45;0.90;;;0.70;;
18076;SDS011;9165;45.714;11.362;2022-09-17T01:16:17;0.93;;;0.83;;
18076;SDS011;9165;45.714;11.362;2022-09-17T01:18:48;1.63;;;0.83;;
18076;SDS011;9165;45.714;11.362;2022-09-17T01:21:23;2.17;;;1.30;;
18076;SDS011;9165;45.714;11.362;2022-09-17T01:26:57;2.67;;;1.40;;
18076;SDS011;9165;45.714;11.362;2022-09-17T01:29:33;0.50;;;0.50;;
18076;SDS011;9165;45.714;11.362;2022-09-17T01:32:06;0.40;;;0.40;;
18076;SDS011;9165;45.714;11.362;2022-09-17T01:34:36;2.23;;;1.43;;
18076;SDS011;9165;45.714;11.362;2022-09-17T01:37:08;1.37;;;0.90;;
18076;SDS011;9165;45.714;11.362;2022-09-17T01:39:45;1.43;;;0.70;;
18076;SDS011;9165;45.714;11.362;2022-09-17T01:42:15;1.87;;;0.87;;
18076;SDS011;9165;45.714;11.362;2022-09-17T01:44:44;1.43;;;0.90;;
18076;SDS011;9165;45.714;11.362;2022-09-17T01:47:14;2.27;;;1.23;;
18076;SDS011;9165;45.714;11.362;2022-09-17T01:49:42;326.90;;;309.80;;
18076;SDS011;9165;45.714;11.362;2022-09-17T01:52:09;774.87;;;692.00;;
18076;SDS011;9165;45.714;11.362;2022-09-17T01:54:38;582.37;;;479.80;;
18076;SDS011;9165;45.714;11.362;2022-09-17T01:57:07;797.63;;;688.17;;
18076;SDS011;9165;45.714;11.362;2022-09-17T01:59:36;740.53;;;528.47;;
18076;SDS011;9165;45.714;11.362;2022-09-17T02:02:06;741.53;;;589.40;;
18076;SDS011;9165;45.714;11.362;2022-09-17T02:04:36;340.87;;;261.73;;
18076;SDS011;9165;45.714;11.362;2022-09-17T02:07:05;320.03;;;250.57;;
18076;SDS011;9165;45.714;11.362;2022-09-17T02:09:34;762.67;;;682.80;;
18076;SDS011;9165;45.714;11.362;2022-09-17T02:12:02;804.93;;;725.10;;
18076;SDS011;9165;45.714;11.362;2022-09-17T02:14:33;770.07;;;644.17;;
18076;SDS011;9165;45.714;11.362;2022-09-17T02:17:02;0.60;;;0.60;;
18076;SDS011;9165;45.714;11.362;2022-09-17T02:19:31;0.77;;;0.60;;
18076;SDS011;9165;45.714;11.362;2022-09-17T02:22:01;0.63;;;0.63;;
18076;SDS011;9165;45.714;11.362;2022-09-17T02:24:30;2.40;;;1.30;;
18076;SDS011;9165;45.714;11.362;2022-09-17T02:26:59;1.40;;;1.07;;
18076;SDS011;9165;45.714;11.362;2022-09-17T02:29:28;1.00;;;0.53;;
18076;SDS011;9165;45.714;11.362;2022-09-17T02:31:56;1.00;;;0.90;;
18076;SDS011;9165;45.714;11.362;2022-09-17T02:34:23;1.50;;;0.60;;
18076;SDS011;9165;45.714;11.362;2022-09-17T02:36:51;0.70;;;0.70;;
18076;SDS011;9165;45.714;11.362;2022-09-17T02:39:19;1.23;;;0.83;;
18076;SDS011;9165;45.714;11.362;2022-09-17T02:41:48;0.50;;;0.50;;
18076;SDS011;9165;45.714;11.362;2022-09-17T02:44:20;1.97;;;1.07;;
18076;SDS011;9165;45.714;11.362;2022-09-17T02:46:55;1.30;;;1.20;;
18076;SDS011;9165;45.714;11.362;2022-09-17T02:49:28;1.03;;;0.93;;
18076;SDS011;9165;45.714;11.362;2022-09-17T02:51:58;0.60;;;0.60;;
18076;SDS011;9165;45.714;11.362;2022-09-17T02:54:30;0.80;;;0.67;;
18076;SDS011;9165;45.714;11.362;2022-09-17T02:57:04;0.50;;;0.50;;
18076;SDS011;9165;45.714;11.362;2022-09-17T02:59:34;1.40;;;0.60;;
18076;SDS011;9165;45.714;11.362;2022-09-17T03:02:06;1.07;;;0.90;;
18076;SDS011;9165;45.714;11.362;2022-09-17T03:04:34;0.90;;;0.90;;
18076;SDS011;9165;45.714;11.362;2022-09-17T03:07:03;0.40;;;0.40;;
18076;SDS011;9165;45.714;11.362;2022-09-17T03:09:34;0.67;;;0.40;;
18076;SDS011;9165;45.714;11.362;2022-09-17T03:12:01;2.03;;;1.13;;
18076;SDS011;9165;45.714;11.362;2022-09-17T03:14:27;1.07;;;0.70;;
18076;SDS011;9165;45.714;11.362;2022-09-17T03:16:54;0.67;;;0.37;;
18076;SDS011;9165;45.714;11.362;2022-09-17T03:19:21;0.60;;;0.40;;
18076;SDS011;9165;45.714;11.362;2022-09-17T03:21:48;0.77;;;0.60;;
18076;SDS011;9165;45.714;11.362;2022-09-17T03:24:14;2.50;;;0.50;;
18076;SDS011;9165;45.714;11.362;2022-09-17T03:26:42;0.43;;;0.43;;
18076;SDS011;9165;45.714;11.362;2022-09-17T03:29:08;0.80;;;0.67;;
18076;SDS011;9165;45.714;11.362;2022-09-17T03:31:35;1.03;;;0.87;;
18076;SDS011;9165;45.714;11.362;2022-09-17T03:34:01;0.80;;;0.73;;
18076;SDS011;9165;45.714;11.362;2022-09-17T03:36:28;2.27;;;0.90;;
18076;SDS011;9165;45.714;11.362;2022-09-17T03:38:55;1.80;;;1.10;;
18076;SDS011;9165;45.714;11.362;2022-09-17T03:41:22;2.30;;;0.53;;
18076;SDS011;9165;45.714;11.362;2022-09-17T03:43:50;1.90;;;0.60;;
18076;SDS011;9165;45.714;11.362;2022-09-17T03:46:17;0.97;;;0.67;;
18076;SDS011;9165;45.714;11.362;2022-09-17T03:48:44;2.03;;;1.00;;
18076;SDS011;9165;45.714;11.362;2022-09-17T03:51:10;0.77;;;0.70;;
18076;SDS011;9165;45.714;11.362;2022-09-17T03:53:37;1.33;;;0.67;;
18076;SDS011;9165;45.714;11.362;2022-09-17T03:56:04;0.83;;;0.70;;
18076;SDS011;9165;45.714;11.362;2022-09-17T03:58:31;0.57;;;0.50;;
18076;SDS011;9165;45.714;11.362;2022-09-17T04:00:59;1.77;;;0.80;;
18076;SDS011;9165;45.714;11.362;2022-09-17T04:03:27;0.57;;;0.57;;
18076;SDS011;9165;45.714;11.362;2022-09-17T04:05:54;0.30;;;0.30;;
18076;SDS011;9165;45.714;11.362;2022-09-17T04:08:21;0.50;;;0.50;;
18076;SDS011;9165;45.714;11.362;2022-09-17T04:10:47;2.27;;;0.50;;
18076;SDS011;9165;45.714;11.362;2022-09-17T04:13:14;0.40;;;0.30;;
18076;SDS011;9165;45.714;11.362;2022-09-17T04:15:42;0.40;;;0.40;;
18076;SDS011;9165;45.714;11.362;2022-09-17T04:18:10;1.33;;;0.50;;
18076;SDS011;9165;45.714;11.362;2022-09-17T04:20:37;0.60;;;0.40;;
18076;SDS011;9165;45.714;11.362;2022-09-17T04:23:03;0.30;;;0.30;;
18076;SDS011;9165;45.714;11.362;2022-09-17T04:25:31;1.17;;;0.50;;
18076;SDS011;9165;45.714;11.362;2022-09-17T04:27:57;0.63;;;0.50;;
18076;SDS011;9165;45.714;11.362;2022-09-17T04:30:24;1.37;;;0.57;;
18076;SDS011;9165;45.714;11.362;2022-09-17T04:32:50;0.70;;;0.70;;
18076;SDS011;9165;45.714;11.362;2022-09-17T04:35:18;0.40;;;0.40;;
18076;SDS011;9165;45.714;11.362;2022-09-17T04:37:50;1.53;;;0.50;;
18076;SDS011;9165;45.714;11.362;2022-09-17T04:40:17;1.00;;;0.43;;
18076;SDS011;9165;45.714;11.362;2022-09-17T04:42:43;1.10;;;0.47;;
18076;SDS011;9165;45.714;11.362;2022-09-17T04:45:10;0.20;;;0.20;;
18076;SDS011;9165;45.714;11.362;2022-09-17T04:47:37;4.10;;;2.00;;
18076;SDS011;9165;45.714;11.362;2022-09-17T04:50:04;0.93;;;0.60;;
18076;SDS011;9165;45.714;11.362;2022-09-17T04:52:32;0.97;;;0.30;;
18076;SDS011;9165;45.714;11.362;2022-09-17T04:54:58;0.40;;;0.40;;
18076;SDS011;9165;45.714;11.362;2022-09-17T04:57:25;0.93;;;0.67;;
18076;SDS011;9165;45.714;11.362;2022-09-17T04:59:52;1.60;;;0.43;;
18076;SDS011;9165;45.714;11.362;2022-09-17T05:02:18;0.33;;;0.23;;
18076;SDS011;9165;45.714;11.362;2022-09-17T05:04:44;0.37;;;0.30;;
18076;SDS011;9165;45.714;11.362;2022-09-17T05:07:11;0.20;;;0.20;;
18076;SDS011;9165;45.714;11.362;2022-09-17T05:09:39;0.20;;;0.20;;
18076;SDS011;9165;45.714;11.362;2022-09-17T05:12:06;0.20;;;0.20;;
18076;SDS011;9165;45.714;11.362;2022-09-17T05:14:32;0.17;;;0.17;;
18076;SDS011;9165;45.714;11.362;2022-09-17T05:16:59;0.30;;;0.30;;
18076;SDS011;9165;45.714;11.362;2022-09-17T05:19:25;0.17;;;0.17;;
18076;SDS011;9165;45.714;11.362;2022-09-17T05:21:52;536.63;;;351.43;;
18076;SDS011;9165;45.714;11.362;2022-09-17T05:24:18;170.17;;;88.83;;
18076;SDS011;9165;45.714;11.362;2022-09-17T05:26:46;9.03;;;4.67;;
18076;SDS011;9165;45.714;11.362;2022-09-17T05:29:12;15.47;;;8.03;;
18076;SDS011;9165;45.714;11.362;2022-09-17T05:31:39;0.40;;;0.40;;
18076;SDS011;9165;45.714;11.362;2022-09-17T05:34:05;0.67;;;0.40;;
18076;SDS011;9165;45.714;11.362;2022-09-17T05:36:32;0.20;;;0.20;;
18076;SDS011;9165;45.714;11.362;2022-09-17T05:38:58;0.67;;;0.23;;
18076;SDS011;9165;45.714;11.362;2022-09-17T05:41:25;2.20;;;0.97;;
18076;SDS011;9165;45.714;11.362;2022-09-17T05:43:53;0.20;;;0.20;;
18076;SDS011;9165;45.714;11.362;2022-09-17T05:46:20;0.17;;;0.17;;
18076;SDS011;9165;45.714;11.362;2022-09-17T05:48:46;0.20;;;0.20;;
18076;SDS011;9165;45.714;11.362;2022-09-17T05:51:13;0.33;;;0.30;;
18076;SDS011;9165;45.714;11.362;2022-09-17T05:53:39;0.30;;;0.30;;
18076;SDS011;9165;45.714;11.362;2022-09-17T05:56:06;0.40;;;0.40;;
18076;SDS011;9165;45.714;11.362;2022-09-17T05:58:33;0.33;;;0.10;;
18076;SDS011;9165;45.714;11.362;2022-09-17T06:01:01;0.63;;;0.40;;
18076;SDS011;9165;45.714;11.362;2022-09-17T06:03:27;0.30;;;0.30;;
18076;SDS011;9165;45.714;11.362;2022-09-17T06:05:54;0.57;;;0.47;;
18076;SDS011;9165;45.714;11.362;2022-09-17T06:08:22;1.27;;;0.77;;
18076;SDS011;9165;45.714;11.362;2022-09-17T06:10:49;0.40;;;0.40;;
18076;SDS011;9165;45.714;11.362;2022-09-17T06:13:15;0.57;;;0.40;;
18076;SDS011;9165;45.714;11.362;2022-09-17T06:15:42;0.90;;;0.50;;
18076;SDS011;9165;45.714;11.362;2022-09-17T06:18:15;0.33;;;0.33;;
18076;SDS011;9165;45.714;11.362;2022-09-17T06:20:42;0.40;;;0.40;;
18076;SDS011;9165;45.714;11.362;2022-09-17T06:23:08;1.07;;;0.50;;
18076;SDS011;9165;45.714;11.362;2022-09-17T06:25:35;1.20;;;0.53;;
18076;SDS011;9165;45.714;11.362;2022-09-17T06:28:01;1.30;;;0.53;;
18076;SDS011;9165;45.714;11.362;2022-09-17T06:30:28;0.40;;;0.40;;
18076;SDS011;9165;45.714;11.362;2022-09-17T06:32:54;1.03;;;0.50;;
18076;SDS011;9165;45.714;11.362;2022-09-17T06:35:22;0.30;;;0.30;;
18076;SDS011;9165;45.714;11.362;2022-09-17T06:37:49;1.67;;;0.43;;
18076;SDS011;9165;45.714;11.362;2022-09-17T06:40:15;0.40;;;0.40;;
18076;SDS011;9165;45.714;11.362;2022-09-17T06:42:42;0.67;;;0.30;;
18076;SDS011;9165;45.714;11.362;2022-09-17T06:45:09;1.50;;;0.57;;
18076;SDS011;9165;45.714;11.362;2022-09-17T06:47:35;1.90;;;0.60;;
18076;SDS011;9165;45.714;11.362;2022-09-17T06:50:02;0.30;;;0.30;;
18076;SDS011;9165;45.714;11.362;2022-09-17T06:52:30;0.60;;;0.30;;
18076;SDS011;9165;45.714;11.362;2022-09-17T06:54:56;0.90;;;0.70;;
18076;SDS011;9165;45.714;11.362;2022-09-17T06:57:23;0.40;;;0.40;;
18076;SDS011;9165;45.714;11.362;2022-09-17T06:59:49;0.33;;;0.30;;
18076;SDS011;9165;45.714;11.362;2022-09-17T07:02:16;0.80;;;0.57;;
18076;SDS011;9165;45.714;11.362;2022-09-17T07:04:42;0.40;;;0.23;;
18076;SDS011;9165;45.714;11.362;2022-09-17T07:07:09;0.40;;;0.40;;
18076;SDS011;9165;45.714;11.362;2022-09-17T07:09:37;1.00;;;0.50;;
18076;SDS011;9165;45.714;11.362;2022-09-17T07:12:05;0.33;;;0.30;;
18076;SDS011;9165;45.714;11.362;2022-09-17T07:14:32;0.43;;;0.40;;
18076;SDS011;9165;45.714;11.362;2022-09-17T07:16:58;3.70;;;0.60;;
18076;SDS011;9165;45.714;11.362;2022-09-17T07:19:25;1.10;;;0.70;;
18076;SDS011;9165;45.714;11.362;2022-09-17T07:21:52;1.07;;;0.40;;
18076;SDS011;9165;45.714;11.362;2022-09-17T07:24:18;0.50;;;0.40;;
18076;SDS011;9165;45.714;11.362;2022-09-17T07:26:46;0.50;;;0.40;;
18076;SDS011;9165;45.714;11.362;2022-09-17T07:29:13;0.40;;;0.40;;
18076;SDS011;9165;45.714;11.362;2022-09-17T07:31:40;0.87;;;0.77;;
18076;SDS011;9165;45.714;11.362;2022-09-17T07:34:06;0.37;;;0.37;;
18076;SDS011;9165;45.714;11.362;2022-09-17T07:36:33;0.83;;;0.50;;
18076;SDS011;9165;45.714;11.362;2022-09-17T07:39:02;1.33;;;0.70;;
18076;SDS011;9165;45.714;11.362;2022-09-17T07:41:28;1.00;;;0.60;;
18076;SDS011;9165;45.714;11.362;2022-09-17T07:43:57;1.90;;;0.47;;
18076;SDS011;9165;45.714;11.362;2022-09-17T07:46:26;1.27;;;0.60;;
18076;SDS011;9165;45.714;11.362;2022-09-17T07:48:53;0.57;;;0.57;;
18076;SDS011;9165;45.714;11.362;2022-09-17T07:51:20;1.03;;;0.53;;
18076;SDS011;9165;45.714;11.362;2022-09-17T07:53:49;1.00;;;0.50;;
18076;SDS011;9165;45.714;11.362;2022-09-17T07:56:15;0.70;;;0.70;;
18076;SDS011;9165;45.714;11.362;2022-09-17T07:58:42;0.83;;;0.80;;
18076;SDS011;9165;45.714;11.362;2022-09-17T08:01:10;0.50;;;0.50;;
18076;SDS011;9165;45.714;11.362;2022-09-17T08:03:37;0.50;;;0.50;;
18076;SDS011;9165;45.714;11.362;2022-09-17T08:06:05;0.40;;;0.40;;
18076;SDS011;9165;45.714;11.362;2022-09-17T08:08:32;0.20;;;0.20;;
18076;SDS011;9165;45.714;11.362;2022-09-17T08:11:00;0.43;;;0.43;;
18076;SDS011;9165;45.714;11.362;2022-09-17T08:13:27;0.20;;;0.20;;
18076;SDS011;9165;45.714;11.362;2022-09-17T08:15:56;1.80;;;0.50;;
18076;SDS011;9165;45.714;11.362;2022-09-17T08:18:24;2.17;;;0.50;;
18076;SDS011;9165;45.714;11.362;2022-09-17T08:20:51;0.63;;;0.20;;
18076;SDS011;9165;45.714;11.362;2022-09-17T08:23:17;1.70;;;0.37;;
18076;SDS011;9165;45.714;11.362;2022-09-17T08:25:50;2.37;;;0.60;;
18076;SDS011;9165;45.714;11.362;2022-09-17T08:28:16;1.07;;;0.63;;
18076;SDS011;9165;45.714;11.362;2022-09-17T08:30:43;2.13;;;1.40;;
18076;SDS011;9165;45.714;11.362;2022-09-17T08:33:10;1.67;;;1.20;;
18076;SDS011;9165;45.714;11.362;2022-09-17T08:35:38;16.53;;;9.30;;
18076;SDS011;9165;45.714;11.362;2022-09-17T08:38:05;11.93;;;6.40;;
18076;SDS011;9165;45.714;11.362;2022-09-17T08:40:32;2.50;;;2.07;;
18076;SDS011;9165;45.714;11.362;2022-09-17T08:43:07;4.50;;;3.07;;
18076;SDS011;9165;45.714;11.362;2022-09-17T08:45:42;2.90;;;1.70;;
18076;SDS011;9165;45.714;11.362;2022-09-17T08:48:08;4.10;;;2.07;;
18076;SDS011;9165;45.714;11.362;2022-09-17T08:50:44;3.40;;;1.77;;
18076;SDS011;9165;45.714;11.362;2022-09-17T08:53:17;0.60;;;0.60;;
18076;SDS011;9165;45.714;11.362;2022-09-17T08:55:50;2.00;;;1.30;;
18076;SDS011;9165;45.714;11.362;2022-09-17T08:58:25;1.13;;;0.90;;
18076;SDS011;9165;45.714;11.362;2022-09-17T09:01:01;2.10;;;1.03;;
18076;SDS011;9165;45.714;11.362;2022-09-17T09:03:36;1.33;;;0.97;;
18076;SDS011;9165;45.714;11.362;2022-09-17T09:06:07;0.50;;;0.50;;
18076;SDS011;9165;45.714;11.362;2022-09-17T09:08:35;0.83;;;0.60;;
18076;SDS011;9165;45.714;11.362;2022-09-17T09:11:05;1.60;;;1.13;;
18076;SDS011;9165;45.714;11.362;2022-09-17T09:13:37;3.70;;;2.17;;
18076;SDS011;9165;45.714;11.362;2022-09-17T09:16:09;1.43;;;1.13;;
18076;SDS011;9165;45.714;11.362;2022-09-17T09:18:37;1.53;;;1.10;;
18076;SDS011;9165;45.714;11.362;2022-09-17T09:21:11;4.40;;;2.53;;
18076;SDS011;9165;45.714;11.362;2022-09-17T09:23:44;5.50;;;1.77;;
18076;SDS011;9165;45.714;11.362;2022-09-17T09:26:15;3.00;;;1.77;;
18076;SDS011;9165;45.714;11.362;2022-09-17T09:28:55;5.07;;;2.60;;
18076;SDS011;9165;45.714;11.362;2022-09-17T09:31:38;1.40;;;0.90;;
18076;SDS011;9165;45.714;11.362;2022-09-17T09:34:07;1.40;;;1.20;;
18076;SDS011;9165;45.714;11.362;2022-09-17T09:36:36;4.13;;;1.10;;
18076;SDS011;9165;45.714;11.362;2022-09-17T09:39:05;1.43;;;1.30;;
18076;SDS011;9165;45.714;11.362;2022-09-17T09:41:37;1.10;;;0.87;;
18076;SDS011;9165;45.714;11.362;2022-09-17T09:44:08;7.03;;;5.87;;
18076;SDS011;9165;45.714;11.362;2022-09-17T09:46:48;3.70;;;2.80;;
18076;SDS011;9165;45.714;11.362;2022-09-17T09:49:19;4.33;;;1.97;;
18076;SDS011;9165;45.714;11.362;2022-09-17T09:51:53;2.43;;;1.80;;
18076;SDS011;9165;45.714;11.362;2022-09-17T09:54:30;1.30;;;0.90;;
18076;SDS011;9165;45.714;11.362;2022-09-17T09:56:59;2.93;;;0.80;;
18076;SDS011;9165;45.714;11.362;2022-09-17T09:59:28;2.00;;;1.90;;
18076;SDS011;9165;45.714;11.362;2022-09-17T10:01:54;1.13;;;0.97;;
18076;SDS011;9165;45.714;11.362;2022-09-17T10:04:22;1.23;;;1.13;;
18076;SDS011;9165;45.714;11.362;2022-09-17T10:06:51;22.00;;;16.67;;
18076;SDS011;9165;45.714;11.362;2022-09-17T10:09:19;1.30;;;1.13;;
18076;SDS011;9165;45.714;11.362;2022-09-17T10:12:00;1.90;;;1.17;;
18076;SDS011;9165;45.714;11.362;2022-09-17T10:14:27;2.23;;;1.20;;
18076;SDS011;9165;45.714;11.362;2022-09-17T10:17:10;3.13;;;1.37;;
18076;SDS011;9165;45.714;11.362;2022-09-17T10:19:37;0.83;;;0.83;;
18076;SDS011;9165;45.714;11.362;2022-09-17T10:22:16;4.60;;;1.30;;
18076;SDS011;9165;45.714;11.362;2022-09-17T10:24:45;3.13;;;1.13;;
18076;SDS011;9165;45.714;11.362;2022-09-17T10:27:13;4.23;;;1.10;;
18076;SDS011;9165;45.714;11.362;2022-09-17T10:29:41;1.37;;;0.80;;
18076;SDS011;9165;45.714;11.362;2022-09-17T10:32:13;1.03;;;0.97;;
18076;SDS011;9165;45.714;11.362;2022-09-17T10:34:56;1.37;;;1.00;;
18076;SDS011;9165;45.714;11.362;2022-09-17T10:37:31;1.40;;;1.00;;
18076;SDS011;9165;45.714;11.362;2022-09-17T10:40:00;1.63;;;1.30;;
18076;SDS011;9165;45.714;11.362;2022-09-17T10:42:26;2.03;;;1.40;;
18076;SDS011;9165;45.714;11.362;2022-09-17T10:44:53;1.90;;;1.30;;
18076;SDS011;9165;45.714;11.362;2022-09-17T10:47:20;1.83;;;1.37;;
18076;SDS011;9165;45.714;11.362;2022-09-17T10:49:48;1.37;;;1.13;;
18076;SDS011;9165;45.714;11.362;2022-09-17T10:52:20;2.50;;;1.30;;
18076;SDS011;9165;45.714;11.362;2022-09-17T10:55:08;2.50;;;2.30;;
18076;SDS011;9165;45.714;11.362;2022-09-17T10:57:42;3.03;;;1.63;;
18076;SDS011;9165;45.714;11.362;2022-09-17T11:00:13;6.87;;;4.77;;
18076;SDS011;9165;45.714;11.362;2022-09-17T11:05:38;5.73;;;3.60;;
18076;SDS011;9165;45.714;11.362;2022-09-17T11:08:07;3.87;;;2.27;;
18076;SDS011;9165;45.714;11.362;2022-09-17T11:10:39;5.13;;;3.30;;
18076;SDS011;9165;45.714;11.362;2022-09-17T11:13:11;5.17;;;2.83;;
18076;SDS011;9165;45.714;11.362;2022-09-17T11:15:47;8.33;;;3.73;;
18076;SDS011;9165;45.714;11.362;2022-09-17T11:18:29;2.27;;;2.07;;
18076;SDS011;9165;45.714;11.362;2022-09-17T11:21:02;15.43;;;10.60;;
18076;SDS011;9165;45.714;11.362;2022-09-17T11:23:41;2.23;;;1.73;;
18076;SDS011;9165;45.714;11.362;2022-09-17T11:26:15;4.30;;;1.87;;
18076;SDS011;9165;45.714;11.362;2022-09-17T11:28:51;3.80;;;2.20;;
18076;SDS011;9165;45.714;11.362;2022-09-17T11:31:20;3.10;;;2.03;;
18076;SDS011;9165;45.714;11.362;2022-09-17T11:34:01;2.70;;;1.50;;
18076;SDS011;9165;45.714;11.362;2022-09-17T11:36:30;4.60;;;2.67;;
18076;SDS011;9165;45.714;11.362;2022-09-17T11:38:59;2.97;;;1.80;;
18076;SDS011;9165;45.714;11.362;2022-09-17T11:41:32;2.33;;;1.50;;
18076;SDS011;9165;45.714;11.362;2022-09-17T11:44:04;1.50;;;1.07;;
18076;SDS011;9165;45.714;11.362;2022-09-17T11:46:36;1.87;;;1.30;;
18076;SDS011;9165;45.714;11.362;2022-09-17T11:49:06;3.07;;;1.53;;
18076;SDS011;9165;45.714;11.362;2022-09-17T11:51:37;11.03;;;8.63;;
18076;SDS011;9165;45.714;11.362;2022-09-17T11:54:05;6.67;;;4.43;;
18076;SDS011;9165;45.714;11.362;2022-09-17T11:56:37;2.13;;;1.93;;
18076;SDS011;9165;45.714;11.362;2022-09-17T11:59:09;6.63;;;4.93;;
18076;SDS011;9165;45.714;11.362;2022-09-17T12:01:39;115.20;;;102.57;;
18076;SDS011;9165;45.714;11.362;2022-09-17T12:04:18;5.97;;;4.43;;
18076;SDS011;9165;45.714;11.362;2022-09-17T12:06:48;5.73;;;4.60;;
18076;SDS011;9165;45.714;11.362;2022-09-17T12:09:18;7.70;;;5.93;;
18076;SDS011;9165;45.714;11.362;2022-09-17T12:11:48;6.03;;;4.70;;
18076;SDS011;9165;45.714;11.362;2022-09-17T12:14:17;1.50;;;1.40;;
18076;SDS011;9165;45.714;11.362;2022-09-17T12:16:47;4.47;;;3.17;;
18076;SDS011;9165;45.714;11.362;2022-09-17T12:19:16;4.23;;;2.50;;
18076;SDS011;9165;45.714;11.362;2022-09-17T12:21:44;8.37;;;5.87;;
18076;SDS011;9165;45.714;11.362;2022-09-17T12:24:13;4.93;;;3.70;;
18076;SDS011;9165;45.714;11.362;2022-09-17T12:26:54;5.67;;;4.73;;
18076;SDS011;9165;45.714;11.362;2022-09-17T12:32:16;2.23;;;1.80;;
18076;SDS011;9165;45.714;11.362;2022-09-17T12:34:46;4.93;;;3.73;;
18076;SDS011;9165;45.714;11.362;2022-09-17T12:37:18;3.00;;;1.30;;
18076;SDS011;9165;45.714;11.362;2022-09-17T12:42:39;2.23;;;1.40;;
18076;SDS011;9165;45.714;11.362;2022-09-17T12:45:13;2.83;;;2.57;;
18076;SDS011;9165;45.714;11.362;2022-09-17T12:50:45;4.17;;;1.50;;
18076;SDS011;9165;45.714;11.362;2022-09-17T12:53:20;2.90;;;2.53;;
18076;SDS011;9165;45.714;11.362;2022-09-17T12:55:54;0.90;;;0.90;;
18076;SDS011;9165;45.714;11.362;2022-09-17T12:58:27;2.30;;;1.40;;
18076;SDS011;9165;45.714;11.362;2022-09-17T13:00:58;2.53;;;1.97;;
18076;SDS011;9165;45.714;11.362;2022-09-17T13:03:28;2.27;;;1.40;;
18076;SDS011;9165;45.714;11.362;2022-09-17T13:06:14;6.70;;;1.90;;
18076;SDS011;9165;45.714;11.362;2022-09-17T13:08:56;1.60;;;1.50;;
18076;SDS011;9165;45.714;11.362;2022-09-17T13:14:16;0.90;;;0.90;;
18076;SDS011;9165;45.714;11.362;2022-09-17T13:16:47;1.57;;;1.10;;
18076;SDS011;9165;45.714;11.362;2022-09-17T13:19:20;4.37;;;1.30;;
18076;SDS011;9165;45.714;11.362;2022-09-17T13:21:50;0.90;;;0.90;;
18076;SDS011;9165;45.714;11.362;2022-09-17T13:24:19;1.43;;;0.80;;
18076;SDS011;9165;45.714;11.362;2022-09-17T13:26:46;2.13;;;1.03;;
18076;SDS011;9165;45.714;11.362;2022-09-17T13:31:56;2.13;;;1.90;;
18076;SDS011;9165;45.714;11.362;2022-09-17T13:34:27;3.07;;;1.77;;
18076;SDS011;9165;45.714;11.362;2022-09-17T13:36:54;3.03;;;1.63;;
18076;SDS011;9165;45.714;11.362;2022-09-17T13:39:32;3.30;;;1.17;;
18076;SDS011;9165;45.714;11.362;2022-09-17T13:42:01;1.03;;;0.97;;
18076;SDS011;9165;45.714;11.362;2022-09-17T13:44:32;2.60;;;1.73;;
18076;SDS011;9165;45.714;11.362;2022-09-17T13:47:08;1.60;;;0.90;;
18076;SDS011;9165;45.714;11.362;2022-09-17T13:49:41;1.50;;;1.00;;
18076;SDS011;9165;45.714;11.362;2022-09-17T13:52:08;2.23;;;0.87;;
18076;SDS011;9165;45.714;11.362;2022-09-17T13:54:35;3.97;;;2.87;;
18076;SDS011;9165;45.714;11.362;2022-09-17T13:57:12;3.87;;;1.03;;
18076;SDS011;9165;45.714;11.362;2022-09-17T13:59:50;2.40;;;1.10;;
18076;SDS011;9165;45.714;11.362;2022-09-17T14:02:31;1.77;;;1.17;;
18076;SDS011;9165;45.714;11.362;2022-09-17T14:07:46;0.70;;;0.70;;
18076;SDS011;9165;45.714;11.362;2022-09-17T14:12:59;2.00;;;1.70;;
18076;SDS011;9165;45.714;11.362;2022-09-17T14:15:45;2.40;;;1.60;;
18076;SDS011;9165;45.714;11.362;2022-09-17T14:18:37;7.60;;;4.87;;
18076;SDS011;9165;45.714;11.362;2022-09-17T14:21:11;7.10;;;4.00;;
18076;SDS011;9165;45.714;11.362;2022-09-17T14:23:41;5.37;;;3.73;;
18076;SDS011;9165;45.714;11.362;2022-09-17T14:26:11;4.70;;;1.80;;
18076;SDS011;9165;45.714;11.362;2022-09-17T14:28:38;2.67;;;2.40;;
18076;SDS011;9165;45.714;11.362;2022-09-17T14:31:08;7.13;;;2.00;;
18076;SDS011;9165;45.714;11.362;2022-09-17T14:33:39;2.07;;;1.63;;
18076;SDS011;9165;45.714;11.362;2022-09-17T14:36:07;5.30;;;3.30;;
18076;SDS011;9165;45.714;11.362;2022-09-17T14:38:36;2.90;;;1.90;;
18076;SDS011;9165;45.714;11.362;2022-09-17T14:41:15;3.23;;;2.10;;
18076;SDS011;9165;45.714;11.362;2022-09-17T14:43:44;0.97;;;0.93;;
18076;SDS011;9165;45.714;11.362;2022-09-17T14:46:13;2.53;;;1.00;;
18076;SDS011;9165;45.714;11.362;2022-09-17T14:48:43;0.83;;;0.83;;
18076;SDS011;9165;45.714;11.362;2022-09-17T14:51:21;1.07;;;0.83;;
18076;SDS011;9165;45.714;11.362;2022-09-17T14:54:05;33.37;;;29.93;;
18076;SDS011;9165;45.714;11.362;2022-09-17T14:56:43;1.63;;;1.27;;
18076;SDS011;9165;45.714;11.362;2022-09-17T14:59:13;2.33;;;2.00;;
18076;SDS011;9165;45.714;11.362;2022-09-17T15:01:44;3.37;;;2.57;;
18076;SDS011;9165;45.714;11.362;2022-09-17T15:04:20;3.63;;;2.67;;
18076;SDS011;9165;45.714;11.362;2022-09-17T15:06:47;1.90;;;1.67;;
18076;SDS011;9165;45.714;11.362;2022-09-17T15:09:16;2.67;;;1.53;;
18076;SDS011;9165;45.714;11.362;2022-09-17T15:11:43;2.30;;;1.10;;
18076;SDS011;9165;45.714;11.362;2022-09-17T15:14:15;2.40;;;1.63;;
18076;SDS011;9165;45.714;11.362;2022-09-17T15:16:45;1.23;;;1.10;;
18076;SDS011;9165;45.714;11.362;2022-09-17T15:19:13;1.70;;;1.60;;
18076;SDS011;9165;45.714;11.362;2022-09-17T15:21:46;3.47;;;2.50;;
18076;SDS011;9165;45.714;11.362;2022-09-17T15:24:14;1.63;;;1.30;;
18076;SDS011;9165;45.714;11.362;2022-09-17T15:26:44;5.00;;;2.33;;